createdAt,value
2022-09-27T00:00:42.992Z,2.00
2022-09-27T00:03:30.420Z,1.83
2022-09-27T00:06:22.951Z,2.00
2022-09-27T00:09:10.564Z,1.93
2022-09-27T00:11:57.616Z,2.50
2022-09-27T00:14:44.548Z,2.20
2022-09-27T00:17:31.736Z,2.10
2022-09-27T00:20:20.284Z,2.03
2022-09-27T00:23:07.877Z,2.80
2022-09-27T00:25:55.990Z,2.47
2022-09-27T00:28:43.134Z,2.40
2022-09-27T00:31:31.000Z,2.23
2022-09-27T00:34:20.378Z,2.40
2022-09-27T00:37:08.322Z,2.60
2022-09-27T00:39:55.927Z,2.70
2022-09-27T00:42:43.082Z,2.30
2022-09-27T00:45:30.062Z,2.37
2022-09-27T00:48:20.782Z,2.50
2022-09-27T00:51:10.050Z,2.53
2022-09-27T00:53:58.492Z,2.60
2022-09-27T00:56:48.296Z,1.90
2022-09-27T00:59:38.501Z,2.40
2022-09-27T01:02:25.964Z,2.17
2022-09-27T01:05:16.230Z,2.03
2022-09-27T01:08:03.279Z,2.37
2022-09-27T01:11:03.345Z,2.20
2022-09-27T01:14:04.030Z,1.93
2022-09-27T01:17:00.780Z,2.13
2022-09-27T01:20:14.847Z,1.80
2022-09-27T01:23:23.322Z,1.60
2022-09-27T01:26:16.521Z,2.00
2022-09-27T01:29:10.772Z,1.83
2022-09-27T01:32:05.776Z,2.50
2022-09-27T01:35:01.943Z,1.90
2022-09-27T01:37:56.902Z,1.80
2022-09-27T01:40:52.881Z,2.13
2022-09-27T01:44:22.779Z,2.10
2022-09-27T01:47:18.602Z,2.40
2022-09-27T01:50:13.014Z,2.00
2022-09-27T01:53:03.286Z,2.30
2022-09-27T01:55:57.435Z,2.10
2022-09-27T01:59:14.442Z,2.50
2022-09-27T02:02:11.334Z,2.80
2022-09-27T02:05:30.378Z,2.10
2022-09-27T02:08:26.171Z,2.30
2022-09-27T02:11:15.877Z,2.20
2022-09-27T02:14:12.580Z,2.30
2022-09-27T02:17:10.447Z,2.20
2022-09-27T02:20:07.587Z,2.50
2022-09-27T02:23:14.503Z,2.30
2022-09-27T02:26:09.091Z,2.10
2022-09-27T02:29:00.956Z,2.33
2022-09-27T02:31:53.656Z,2.00
2022-09-27T02:34:42.427Z,2.60
2022-09-27T02:37:29.884Z,2.00
2022-09-27T02:40:18.759Z,2.43
2022-09-27T02:43:06.404Z,2.53
2022-09-27T02:46:05.413Z,2.83
2022-09-27T02:49:03.596Z,2.70
2022-09-27T02:51:59.164Z,2.40
2022-09-27T02:54:56.953Z,2.63
2022-09-27T02:58:17.238Z,2.97
2022-09-27T03:01:29.563Z,3.03
2022-09-27T03:04:47.441Z,2.73
2022-09-27T03:07:35.293Z,2.97
2022-09-27T03:10:24.938Z,2.93
2022-09-27T03:13:12.845Z,2.50
2022-09-27T03:16:01.773Z,2.77
2022-09-27T03:19:08.943Z,2.60
2022-09-27T03:22:08.634Z,2.07
2022-09-27T03:24:56.749Z,2.10
2022-09-27T03:27:44.005Z,1.97
2022-09-27T03:30:31.890Z,1.80
2022-09-27T03:33:18.913Z,1.80
2022-09-27T03:36:09.721Z,1.80
2022-09-27T03:38:56.681Z,1.30
2022-09-27T03:41:43.668Z,1.67
2022-09-27T03:44:32.035Z,1.70
2022-09-27T03:47:19.705Z,1.70
2022-09-27T03:50:08.126Z,1.30
2022-09-27T03:52:55.111Z,1.40
2022-09-27T03:55:45.713Z,1.67
2022-09-27T03:58:32.693Z,1.50
2022-09-27T04:01:19.924Z,1.40
2022-09-27T04:04:12.798Z,1.50
2022-09-27T04:06:59.806Z,1.50
2022-09-27T04:09:47.078Z,1.40
2022-09-27T04:12:34.515Z,1.30
2022-09-27T04:15:21.498Z,1.43
2022-09-27T04:18:08.447Z,1.47
2022-09-27T04:20:56.047Z,1.60
2022-09-27T04:23:43.138Z,1.57
2022-09-27T04:26:34.235Z,1.30
2022-09-27T04:29:22.871Z,1.30
2022-09-27T04:32:13.059Z,1.50
2022-09-27T04:35:47.565Z,1.70
2022-09-27T04:38:35.542Z,1.93
2022-09-27T04:41:24.005Z,1.30
2022-09-27T04:44:10.969Z,1.43
2022-09-27T04:46:59.674Z,1.73
2022-09-27T04:49:46.727Z,1.60
2022-09-27T04:52:33.759Z,1.60
2022-09-27T04:55:22.059Z,1.30
2022-09-27T04:58:09.133Z,1.50
2022-09-27T05:00:56.197Z,1.37
2022-09-27T05:04:07.742Z,1.50
2022-09-27T05:06:57.866Z,1.27
2022-09-27T05:09:55.881Z,1.57
2022-09-27T05:12:44.171Z,1.50
2022-09-27T05:15:35.413Z,1.53
2022-09-27T05:18:45.593Z,2.10
2022-09-27T05:22:08.393Z,1.70
2022-09-27T05:24:55.482Z,1.60
2022-09-27T05:27:43.158Z,1.33
2022-09-27T05:30:30.424Z,1.70
2022-09-27T05:33:25.861Z,1.30
2022-09-27T05:36:31.690Z,1.40
2022-09-27T05:39:18.823Z,1.50
2022-09-27T05:42:09.378Z,1.27
2022-09-27T05:44:59.294Z,1.63
2022-09-27T05:47:53.598Z,1.07
2022-09-27T05:50:40.925Z,1.00
2022-09-27T05:53:28.130Z,1.00
2022-09-27T05:56:16.330Z,1.17
2022-09-27T05:59:25.734Z,1.00
2022-09-27T06:02:39.225Z,1.07
2022-09-27T06:05:36.901Z,1.10
2022-09-27T06:08:44.590Z,0.90
2022-09-27T06:11:34.846Z,1.30
2022-09-27T06:14:21.843Z,1.10
2022-09-27T06:17:21.170Z,1.10
2022-09-27T06:20:09.392Z,1.00
2022-09-27T06:23:04.747Z,0.87
2022-09-27T06:25:52.511Z,0.87
2022-09-27T06:28:50.947Z,0.90
2022-09-27T06:31:37.918Z,0.70
2022-09-27T06:34:36.139Z,0.90
2022-09-27T06:37:26.155Z,0.93
2022-09-27T06:40:13.433Z,0.80
2022-09-27T06:43:16.112Z,0.40
2022-09-27T06:46:23.375Z,0.90
2022-09-27T06:49:22.155Z,0.70
2022-09-27T06:52:09.671Z,0.90
2022-09-27T06:54:57.271Z,0.70
2022-09-27T06:58:02.743Z,0.80
2022-09-27T07:00:52.048Z,0.80
2022-09-27T07:04:01.784Z,0.90
2022-09-27T07:07:08.381Z,0.90
2022-09-27T07:09:58.715Z,0.80
2022-09-27T07:12:47.883Z,0.67
2022-09-27T07:15:39.940Z,0.90
2022-09-27T07:18:31.549Z,0.93
2022-09-27T07:21:18.992Z,1.10
2022-09-27T07:24:06.852Z,1.10
2022-09-27T07:26:54.648Z,1.07
2022-09-27T07:29:42.908Z,0.70
2022-09-27T07:32:29.933Z,0.90
2022-09-27T07:35:17.084Z,1.70
2022-09-27T07:38:04.687Z,1.07
2022-09-27T07:40:52.270Z,0.90
2022-09-27T07:43:40.375Z,1.10
2022-09-27T07:46:29.759Z,0.90
2022-09-27T07:49:26.852Z,1.10
2022-09-27T07:52:39.707Z,0.90
2022-09-27T07:55:50.215Z,0.90
2022-09-27T07:58:41.252Z,0.90
2022-09-27T08:01:28.934Z,0.80
2022-09-27T08:04:16.055Z,1.00
2022-09-27T08:07:03.076Z,1.10
2022-09-27T08:09:50.199Z,1.20
2022-09-27T08:12:37.242Z,1.13
2022-09-27T08:15:25.360Z,1.13
2022-09-27T08:18:12.476Z,1.60
2022-09-27T08:21:16.744Z,1.40
2022-09-27T08:24:12.076Z,1.30
2022-09-27T08:27:18.340Z,1.30
2022-09-27T08:30:11.675Z,1.57
2022-09-27T08:33:01.671Z,1.40
2022-09-27T08:35:48.675Z,1.40
2022-09-27T08:38:35.879Z,1.30
2022-09-27T08:41:32.611Z,1.33
2022-09-27T08:44:27.499Z,1.30
2022-09-27T08:47:26.907Z,1.20
2022-09-27T08:50:26.223Z,1.40
2022-09-27T08:53:21.570Z,1.27
2022-09-27T08:56:11.424Z,1.30
2022-09-27T08:59:09.977Z,1.10
2022-09-27T09:01:58.001Z,1.60
2022-09-27T09:04:59.842Z,1.50
2022-09-27T09:08:07.637Z,1.57
2022-09-27T09:11:24.193Z,1.60
2022-09-27T09:14:29.270Z,1.70
2022-09-27T09:17:26.782Z,1.40
2022-09-27T09:20:58.122Z,1.60
2022-09-27T09:24:07.360Z,1.70
2022-09-27T09:26:59.741Z,1.87
2022-09-27T09:30:17.640Z,1.67
2022-09-27T09:33:22.164Z,2.00
2022-09-27T09:36:15.354Z,2.07
2022-09-27T09:39:10.539Z,2.03
2022-09-27T09:42:08.560Z,1.93
2022-09-27T09:45:01.485Z,2.30
2022-09-27T09:47:57.372Z,2.57
2022-09-27T09:50:47.172Z,2.23
2022-09-27T09:53:40.970Z,2.40
2022-09-27T09:56:32.498Z,2.50
2022-09-27T09:59:26.278Z,2.50
2022-09-27T10:02:26.633Z,2.20
2022-09-27T10:05:19.760Z,2.10
2022-09-27T10:08:16.604Z,2.00
2022-09-27T10:11:04.379Z,2.20
2022-09-27T10:14:11.724Z,2.33
2022-09-27T10:17:03.978Z,2.30
2022-09-27T10:19:53.457Z,2.03
2022-09-27T10:22:47.604Z,2.47
2022-09-27T10:25:53.648Z,2.27
2022-09-27T10:29:22.484Z,2.50
2022-09-27T10:32:22.655Z,2.30
2022-09-27T10:35:31.210Z,2.60
2022-09-27T10:38:24.420Z,2.77
2022-09-27T10:41:22.057Z,3.17
2022-09-27T10:44:29.090Z,3.27
2022-09-27T10:47:48.579Z,3.53
2022-09-27T10:50:59.236Z,3.30
2022-09-27T10:54:20.890Z,3.47
2022-09-27T10:57:19.326Z,3.70
2022-09-27T11:00:20.245Z,3.90
2022-09-27T11:03:14.305Z,4.40
2022-09-27T11:06:18.905Z,3.60
2022-09-27T11:09:23.511Z,3.47
2022-09-27T11:12:13.941Z,3.67
2022-09-27T11:15:05.884Z,3.30
2022-09-27T11:17:58.987Z,3.27
2022-09-27T11:20:51.096Z,3.40
2022-09-27T11:23:56.082Z,3.70
2022-09-27T11:26:54.682Z,3.30
2022-09-27T11:29:56.896Z,3.30
2022-09-27T11:33:20.352Z,2.00
2022-09-27T11:36:14.501Z,1.83
2022-09-27T11:39:08.910Z,1.80
2022-09-27T11:42:13.409Z,1.20
2022-09-27T11:45:50.393Z,1.10
2022-09-27T11:48:49.963Z,1.20
2022-09-27T11:51:50.250Z,1.07
2022-09-27T11:54:58.594Z,1.00
2022-09-27T11:57:50.696Z,1.27
2022-09-27T12:00:51.517Z,1.50
2022-09-27T12:04:09.855Z,1.63
2022-09-27T12:07:04.116Z,1.73
2022-09-27T12:09:56.767Z,1.67
2022-09-27T12:12:50.780Z,1.50
2022-09-27T12:15:41.787Z,1.40
2022-09-27T12:18:32.009Z,1.70
2022-09-27T12:21:22.567Z,1.80
2022-09-27T12:24:17.579Z,1.80
2022-09-27T12:27:27.371Z,1.93
2022-09-27T12:30:14.478Z,1.60
2022-09-27T12:33:07.667Z,1.33
2022-09-27T12:35:59.909Z,1.60
2022-09-27T12:38:55.288Z,1.40
2022-09-27T12:41:48.813Z,1.40
2022-09-27T12:44:50.629Z,1.00
2022-09-27T12:47:52.853Z,0.90
2022-09-27T12:50:44.097Z,0.90
2022-09-27T12:53:46.176Z,0.70
2022-09-27T12:56:46.512Z,0.53
2022-09-27T12:59:55.367Z,0.83
2022-09-27T13:03:15.778Z,0.70
2022-09-27T13:06:33.534Z,0.70
2022-09-27T13:09:58.481Z,0.67
2022-09-27T13:12:52.521Z,0.70
2022-09-27T13:15:43.148Z,0.70
2022-09-27T13:18:49.233Z,0.70
2022-09-27T13:21:57.026Z,0.60
2022-09-27T13:25:40.411Z,0.55
2022-09-27T13:28:58.646Z,0.60
2022-09-27T13:32:28.176Z,0.67
2022-09-27T13:35:30.439Z,0.60
2022-09-27T13:38:25.642Z,0.60
2022-09-27T13:41:18.078Z,0.80
2022-09-27T13:44:30.575Z,0.70
2022-09-27T13:47:33.459Z,0.70
2022-09-27T13:50:26.258Z,0.70
2022-09-27T13:53:27.443Z,0.70
2022-09-27T13:56:48.297Z,0.63
2022-09-27T13:59:43.278Z,0.83
2022-09-27T14:03:02.109Z,0.60
2022-09-27T14:06:13.053Z,0.70
2022-09-27T14:09:04.052Z,1.20
2022-09-27T14:11:54.540Z,0.70
2022-09-27T14:14:42.767Z,0.57
2022-09-27T14:17:30.658Z,0.67
2022-09-27T14:20:31.874Z,0.50
2022-09-27T14:23:21.789Z,0.63
2022-09-27T14:26:22.131Z,0.63
2022-09-27T14:29:16.522Z,0.77
2022-09-27T14:32:08.402Z,0.53
2022-09-27T14:35:26.919Z,0.77
2022-09-27T14:38:36.483Z,0.53
2022-09-27T14:41:26.396Z,0.87
2022-09-27T14:44:16.749Z,0.70
2022-09-27T14:47:17.975Z,0.60
2022-09-27T14:50:18.360Z,0.83
2022-09-27T14:53:22.291Z,0.93
2022-09-27T14:56:15.414Z,0.90
2022-09-27T14:59:08.175Z,0.80
2022-09-27T15:01:55.066Z,0.87
2022-09-27T15:04:46.007Z,1.17
2022-09-27T15:07:33.149Z,0.90
2022-09-27T15:10:22.676Z,1.13
2022-09-27T15:13:14.750Z,1.10
2022-09-27T15:16:06.297Z,1.10
2022-09-27T15:19:02.709Z,0.93
2022-09-27T15:21:50.247Z,1.37
2022-09-27T15:24:39.247Z,1.30
2022-09-27T15:27:26.944Z,1.10
2022-09-27T15:30:18.152Z,2.40
2022-09-27T15:33:07.064Z,1.40
2022-09-27T15:35:55.730Z,1.13
2022-09-27T15:38:46.624Z,1.30
2022-09-27T15:42:02.943Z,1.27
2022-09-27T15:44:51.594Z,1.10
2022-09-27T15:47:48.138Z,1.13
2022-09-27T15:50:36.746Z,2.10
2022-09-27T15:53:45.216Z,1.20
2022-09-27T15:56:34.305Z,1.37
2022-09-27T15:59:23.093Z,0.93
2022-09-27T16:02:18.564Z,1.57
2022-09-27T16:05:06.359Z,1.03
2022-09-27T16:07:53.316Z,1.13
2022-09-27T16:10:44.689Z,1.43
2022-09-27T16:13:33.204Z,1.40
2022-09-27T16:16:21.798Z,1.80
2022-09-27T16:19:08.907Z,1.40
2022-09-27T16:21:55.855Z,1.33
2022-09-27T16:24:42.731Z,1.50
2022-09-27T16:27:30.288Z,1.77
2022-09-27T16:30:17.403Z,1.53
2022-09-27T16:33:04.250Z,1.50
2022-09-27T16:35:52.085Z,1.40
2022-09-27T16:38:38.918Z,1.43
2022-09-27T16:41:25.759Z,1.77
2022-09-27T16:44:16.492Z,1.47
2022-09-27T16:47:03.852Z,1.33
2022-09-27T16:50:08.868Z,1.43
2022-09-27T16:52:56.069Z,1.70
2022-09-27T16:55:42.924Z,1.37
2022-09-27T16:58:29.850Z,1.07
2022-09-27T17:01:17.648Z,1.40
2022-09-27T17:04:04.606Z,1.87
2022-09-27T17:06:51.497Z,1.57
2022-09-27T17:09:39.189Z,1.87
2022-09-27T17:12:26.101Z,1.60
2022-09-27T17:15:13.453Z,1.60
2022-09-27T17:18:00.951Z,1.50
2022-09-27T17:20:48.058Z,1.83
2022-09-27T17:23:35.471Z,1.90
2022-09-27T17:26:25.661Z,2.03
2022-09-27T17:29:13.172Z,2.10
2022-09-27T17:32:00.218Z,2.07
2022-09-27T17:34:47.676Z,2.13
2022-09-27T17:37:34.561Z,2.10
2022-09-27T17:40:21.421Z,2.53
2022-09-27T17:43:08.289Z,2.23
2022-09-27T17:45:55.156Z,2.17
2022-09-27T17:49:14.738Z,2.13
2022-09-27T17:52:02.341Z,2.00
2022-09-27T17:54:50.853Z,2.20
2022-09-27T17:57:37.837Z,2.20
2022-09-27T18:00:24.729Z,2.30
2022-09-27T18:03:11.686Z,2.17
2022-09-27T18:05:58.737Z,2.20
2022-09-27T18:08:46.243Z,2.20
2022-09-27T18:11:33.194Z,2.30
2022-09-27T18:14:20.279Z,2.00
2022-09-27T18:17:07.210Z,2.40
2022-09-27T18:19:56.088Z,2.33
2022-09-27T18:22:42.912Z,2.10
2022-09-27T18:25:30.397Z,2.30
2022-09-27T18:28:17.281Z,2.40
2022-09-27T18:31:06.656Z,2.20
2022-09-27T18:33:53.538Z,2.20
2022-09-27T18:36:41.578Z,2.37
2022-09-27T18:39:28.414Z,2.30
2022-09-27T18:42:15.878Z,2.40
2022-09-27T18:45:03.094Z,2.10
2022-09-27T18:47:50.026Z,2.30
2022-09-27T18:50:37.227Z,2.23
2022-09-27T18:53:24.306Z,1.93
2022-09-27T18:56:12.934Z,2.20
2022-09-27T18:59:00.535Z,2.30
2022-09-27T19:01:47.697Z,2.27
2022-09-27T19:04:34.655Z,2.70
2022-09-27T19:07:21.531Z,2.80
2022-09-27T19:10:09.719Z,3.30
2022-09-27T19:12:56.612Z,2.80
2022-09-27T19:15:53.715Z,2.63
2022-09-27T19:18:40.671Z,2.80
2022-09-27T19:21:29.030Z,2.70
2022-09-27T19:24:16.021Z,2.70
2022-09-27T19:27:02.978Z,2.60
2022-09-27T19:29:49.849Z,2.50
2022-09-27T19:32:37.390Z,2.50
2022-09-27T19:35:24.286Z,2.37
2022-09-27T19:38:11.160Z,2.93
2022-09-27T19:40:58.672Z,2.63
2022-09-27T19:43:50.661Z,2.40
2022-09-27T19:46:38.353Z,2.40
2022-09-27T19:49:25.976Z,2.20
2022-09-27T19:52:12.839Z,2.17
2022-09-27T19:54:59.691Z,1.93
2022-09-27T19:57:46.588Z,2.17
2022-09-27T20:00:33.399Z,2.40
2022-09-27T20:03:20.283Z,2.47
2022-09-27T20:06:10.536Z,2.20
2022-09-27T20:08:57.767Z,2.00
2022-09-27T20:11:45.163Z,2.10
2022-09-27T20:14:32.189Z,2.10
2022-09-27T20:17:19.020Z,2.13
2022-09-27T20:20:07.015Z,2.00
2022-09-27T20:22:54.488Z,1.90
2022-09-27T20:25:43.197Z,2.10
2022-09-27T20:28:30.373Z,2.30
2022-09-27T20:31:19.175Z,2.20
2022-09-27T20:34:08.410Z,2.20
2022-09-27T20:36:55.242Z,2.63
2022-09-27T20:39:42.869Z,2.00
2022-09-27T20:42:29.733Z,2.23
2022-09-27T20:45:16.606Z,2.60
2022-09-27T20:48:03.529Z,2.70
2022-09-27T20:50:56.647Z,2.70
2022-09-27T20:53:44.284Z,3.50
2022-09-27T20:56:33.196Z,2.93
2022-09-27T20:59:22.229Z,2.83
2022-09-27T21:02:09.412Z,3.33
2022-09-27T21:04:56.565Z,3.20
2022-09-27T21:07:43.425Z,3.77
2022-09-27T21:10:30.297Z,2.90
2022-09-27T21:13:18.225Z,2.70
2022-09-27T21:16:07.404Z,2.90
2022-09-27T21:18:56.186Z,2.80
2022-09-27T21:21:42.999Z,2.43
2022-09-27T21:24:29.834Z,2.20
2022-09-27T21:27:16.670Z,2.60
2022-09-27T21:30:05.335Z,2.30
2022-09-27T21:32:54.207Z,2.37
2022-09-27T21:35:41.050Z,2.30
2022-09-27T21:38:29.077Z,2.10
2022-09-27T21:41:16.849Z,2.40
2022-09-27T21:44:04.820Z,2.50
2022-09-27T21:46:52.366Z,2.70
2022-09-27T21:49:39.234Z,2.50
2022-09-27T21:52:27.094Z,2.27
2022-09-27T21:55:14.075Z,2.40
2022-09-27T21:58:00.911Z,2.07
2022-09-27T22:00:47.762Z,1.97
2022-09-27T22:03:35.762Z,2.30
2022-09-27T22:06:24.386Z,2.17
2022-09-27T22:09:14.040Z,1.90
2022-09-27T22:12:01.379Z,1.83
2022-09-27T22:14:48.243Z,2.20
2022-09-27T22:17:35.075Z,2.10
2022-09-27T22:20:22.526Z,2.50
2022-09-27T22:23:09.394Z,2.33
2022-09-27T22:25:56.506Z,2.57
2022-09-27T22:28:44.512Z,2.60
2022-09-27T22:31:31.468Z,2.87
2022-09-27T22:34:27.801Z,2.90
2022-09-27T22:37:15.259Z,2.70
2022-09-27T22:40:02.316Z,3.20
2022-09-27T22:42:49.171Z,3.40
2022-09-27T22:45:36.055Z,3.57
2022-09-27T22:48:23.036Z,3.90
2022-09-27T22:51:09.987Z,4.00
2022-09-27T22:53:57.461Z,4.07
2022-09-27T22:56:44.316Z,4.37
2022-09-27T22:59:31.149Z,4.23
2022-09-27T23:02:18.010Z,4.47
2022-09-27T23:05:05.793Z,4.50
2022-09-27T23:07:53.343Z,4.70
2022-09-27T23:10:41.121Z,5.10
2022-09-27T23:13:30.114Z,4.47
2022-09-27T23:16:19.245Z,5.03
2022-09-27T23:19:06.806Z,4.67
2022-09-27T23:21:53.631Z,5.20
2022-09-27T23:24:40.490Z,4.40
2022-09-27T23:27:44.786Z,4.20
2022-09-27T23:30:31.866Z,4.37
2022-09-27T23:33:19.075Z,4.03
2022-09-27T23:36:08.817Z,4.37
2022-09-27T23:38:59.275Z,4.67
2022-09-27T23:41:47.346Z,4.63
2022-09-27T23:44:34.854Z,4.30
2022-09-27T23:47:21.776Z,4.53
2022-09-27T23:50:09.375Z,4.20
2022-09-27T23:52:56.218Z,4.13
2022-09-27T23:55:43.046Z,4.27
2022-09-27T23:58:32.198Z,4.10
